Time;durP1;ratioP1;P1;durP2;ratioP2;P2;SDS_P1;SDS_P2;PMS_P1;PMS_P2;Temp;Humidity;BMP_temperature;BMP_pressure;BME280_temperature;BME280_humidity;BME280_pressure;Samples;Min_cycle;Max_cycle;Signal;HPM_P1;HPM_P2
2023/04/09 00:01:03;;;;;;;109.07;66.00;;;7.90;99.90;;;;;;4907049;29;20241;-59
2023/04/09 00:03:32;;;;;;;106.40;67.40;;;8.00;99.90;;;;;;4907122;29;20240;-59
2023/04/09 00:06:01;;;;;;;101.50;61.80;;;7.90;99.90;;;;;;4918264;29;20227;-59
2023/04/09 00:08:29;;;;;;;112.83;68.83;;;8.20;99.90;;;;;;4932796;29;20228;-59
2023/04/09 00:10:58;;;;;;;108.33;67.80;;;8.00;99.90;;;;;;4937702;29;20716;-58
2023/04/09 00:13:26;;;;;;;111.83;68.57;;;8.10;99.90;;;;;;4937489;29;20238;-58
2023/04/09 00:16:07;;;;;;;110.47;62.77;;;8.10;99.90;;;;;;4937596;29;20235;-58
2023/04/09 00:18:37;;;;;;;97.83;58.80;;;8.30;99.90;;;;;;4937185;29;20292;-58
2023/04/09 00:21:07;;;;;;;108.63;66.13;;;8.30;99.90;;;;;;4937496;29;20239;-59
2023/04/09 00:23:35;;;;;;;120.07;74.40;;;8.20;99.90;;;;;;4935979;29;20669;-59
2023/04/09 00:26:03;;;;;;;121.03;73.77;;;8.10;99.90;;;;;;4899586;29;20694;-58
2023/04/09 00:28:31;;;;;;;129.77;75.47;;;8.00;99.90;;;;;;4903384;29;20728;-58
2023/04/09 00:30:59;;;;;;;120.93;73.17;;;8.00;99.90;;;;;;4906527;29;20253;-59
2023/04/09 00:33:27;;;;;;;122.23;73.07;;;7.90;99.90;;;;;;4906327;29;20681;-58
2023/04/09 00:35:57;;;;;;;118.43;68.53;;;8.00;99.90;;;;;;4915939;29;20226;-59
2023/04/09 00:38:25;;;;;;;126.60;75.77;;;7.90;99.90;;;;;;4927057;29;20679;-58
2023/04/09 00:40:54;;;;;;;109.50;62.17;;;8.00;99.90;;;;;;4936886;29;20217;-59
2023/04/09 00:43:22;;;;;;;132.23;78.07;;;8.10;99.90;;;;;;4936895;29;20224;-59
2023/04/09 00:45:50;;;;;;;132.03;78.60;;;8.00;99.90;;;;;;4936762;29;20675;-59
2023/04/09 00:48:18;;;;;;;125.30;72.67;;;8.00;99.90;;;;;;4936793;29;20271;-59
2023/04/09 00:50:46;;;;;;;124.83;74.67;;;8.00;99.90;;;;;;4936770;29;20694;-59
2023/04/09 00:53:16;;;;;;;128.83;74.07;;;7.90;99.90;;;;;;4935432;29;20247;-58
2023/04/09 00:55:45;;;;;;;125.83;73.70;;;7.90;99.90;;;;;;4917672;29;20597;-58
2023/04/09 00:58:14;;;;;;;129.93;74.33;;;7.80;99.90;;;;;;4912894;29;20237;-59
2023/04/09 01:00:42;;;;;;;132.70;73.37;;;7.90;99.90;;;;;;4904834;29;20316;-60
2023/04/09 01:03:10;;;;;;;119.23;69.53;;;7.80;99.90;;;;;;4928031;23;21179;-53
2023/04/09 01:05:44;;;;;;;116.40;71.27;;;7.90;99.90;;;;;;4944696;29;20242;-50
2023/04/09 01:08:22;;;;;;;122.80;70.67;;;7.90;99.90;;;;;;4935943;29;20716;-51
2023/04/09 01:10:58;;;;;;;127.03;72.73;;;7.90;99.90;;;;;;4958599;28;20231;-52
2023/04/09 01:13:34;;;;;;;120.83;69.80;;;7.80;99.90;;;;;;4949056;29;20618;-53
2023/04/09 01:16:03;;;;;;;120.57;70.83;;;8.00;99.90;;;;;;4954146;29;20702;-52
2023/04/09 01:18:39;;;;;;;128.10;70.27;;;8.00;99.90;;;;;;4955444;29;20714;-52
2023/04/09 01:21:11;;;;;;;115.07;67.00;;;7.90;99.90;;;;;;4955285;29;20583;-52
2023/04/09 01:24:02;;;;;;;114.50;68.53;;;8.00;99.90;;;;;;4940268;29;20238;-50
2023/04/09 01:26:53;;;;;;;92.90;56.73;;;7.90;99.90;;;;;;4934687;29;20232;-51
2023/04/09 01:29:28;;;;;;;109.17;63.97;;;8.20;99.90;;;;;;4939973;29;20235;-50
2023/04/09 01:31:56;;;;;;;120.50;70.73;;;8.10;99.90;;;;;;4936173;29;20247;-53
2023/04/09 01:34:26;;;;;;;104.70;60.63;;;8.00;99.90;;;;;;4936700;29;20260;-52
2023/04/09 01:36:58;;;;;;;98.27;55.20;;;8.00;99.90;;;;;;4945910;29;20736;-54
2023/04/09 01:39:26;;;;;;;96.13;56.50;;;8.40;99.90;;;;;;4955063;29;20714;-53
2023/04/09 01:41:56;;;;;;;113.90;65.70;;;8.20;99.90;;;;;;4954921;29;20687;-52
2023/04/09 01:44:27;;;;;;;91.00;53.57;;;8.10;99.90;;;;;;4954902;29;20211;-52
2023/04/09 01:46:57;;;;;;;96.20;56.33;;;8.30;99.90;;;;;;4954846;29;20583;-50
2023/04/09 01:49:25;;;;;;;91.00;52.60;;;8.10;99.90;;;;;;4954446;29;20263;-51
2023/04/09 01:51:54;;;;;;;94.47;52.03;;;8.20;99.90;;;;;;4937903;29;20242;-52
2023/04/09 01:54:22;;;;;;;97.17;57.40;;;8.10;99.90;;;;;;4935652;29;20232;-51
2023/04/09 01:56:50;;;;;;;93.80;54.57;;;8.10;99.90;;;;;;4935516;29;20228;-51
2023/04/09 01:59:18;;;;;;;92.10;53.50;;;8.00;99.90;;;;;;4951670;29;20219;-51
2023/04/09 02:01:53;;;;;;;91.17;52.83;;;8.00;99.90;;;;;;4936328;29;20650;-51
2023/04/09 02:04:26;;;;;;;86.53;51.33;;;7.90;99.90;;;;;;4923763;29;20608;-51
2023/04/09 02:07:01;;;;;;;91.93;51.00;;;8.00;99.90;;;;;;4939603;29;20232;-53
2023/04/09 02:09:32;;;;;;;87.73;50.83;;;7.90;99.90;;;;;;4916574;29;20699;-54
2023/04/09 02:12:03;;;;;;;89.20;51.07;;;8.00;99.90;;;;;;4915244;29;20243;-52
2023/04/09 02:14:33;;;;;;;85.50;49.17;;;8.00;99.90;;;;;;4930867;29;20633;-52
2023/04/09 02:17:02;;;;;;;66.43;41.27;;;7.90;99.90;;;;;;4915714;29;20232;-52
2023/04/09 02:19:39;;;;;;;79.17;45.67;;;8.10;99.90;;;;;;4914980;29;20233;-52
2023/04/09 02:22:07;;;;;;;73.43;44.80;;;8.00;99.90;;;;;;4931512;29;20227;-52
2023/04/09 02:24:36;;;;;;;71.63;43.40;;;7.90;99.90;;;;;;4914944;29;20711;-53
2023/04/09 02:27:05;;;;;;;67.67;42.20;;;7.90;99.90;;;;;;4916637;29;20703;-53
2023/04/09 02:29:33;;;;;;;66.50;41.57;;;7.90;99.90;;;;;;4945448;29;20232;-53
2023/04/09 02:32:02;;;;;;;67.57;39.43;;;7.90;99.90;;;;;;4932402;29;20712;-53
2023/04/09 02:34:31;;;;;;;58.60;38.37;;;7.80;99.90;;;;;;4927014;29;20307;-50
2023/04/09 02:36:59;;;;;;;51.57;32.37;;;7.80;99.90;;;;;;4927237;29;20232;-52
2023/04/09 02:39:27;;;;;;;60.23;36.77;;;7.90;99.90;;;;;;4935158;29;20220;-50
2023/04/09 02:41:56;;;;;;;53.40;33.27;;;7.80;99.90;;;;;;4933922;29;20236;-52
2023/04/09 02:44:27;;;;;;;55.97;34.43;;;7.80;99.90;;;;;;4933763;29;20232;-51
2023/04/09 02:46:56;;;;;;;57.50;33.33;;;7.80;99.90;;;;;;4933854;29;20236;-51
2023/04/09 02:49:25;;;;;;;51.67;33.37;;;7.80;99.90;;;;;;4933806;29;20230;-52
2023/04/09 02:51:53;;;;;;;52.70;31.63;;;7.80;99.90;;;;;;4949501;29;20237;-53
2023/04/09 02:54:21;;;;;;;49.77;31.50;;;7.70;99.90;;;;;;4933788;29;20600;-52
2023/04/09 02:56:49;;;;;;;54.63;30.73;;;7.70;99.90;;;;;;4934959;29;20260;-53
2023/04/09 02:59:17;;;;;;;53.37;31.67;;;7.80;99.90;;;;;;4930984;29;20684;-51
2023/04/09 03:01:46;;;;;;;50.80;30.80;;;7.80;99.90;;;;;;4917338;29;20241;-53
2023/04/09 03:04:14;;;;;;;50.20;30.13;;;7.70;99.90;;;;;;4928682;29;20748;-53
2023/04/09 03:06:43;;;;;;;53.50;30.97;;;7.80;99.90;;;;;;4924137;29;20311;-51
2023/04/09 03:09:11;;;;;;;47.10;30.20;;;7.80;99.90;;;;;;4935310;29;20679;-51
2023/04/09 03:11:39;;;;;;;49.00;30.03;;;7.80;99.90;;;;;;4933530;29;20236;-53
2023/04/09 03:14:08;;;;;;;48.33;29.37;;;7.70;99.90;;;;;;4934992;29;20220;-50
2023/04/09 03:16:36;;;;;;;48.07;28.07;;;7.70;99.90;;;;;;4934804;29;20229;-52
2023/04/09 03:19:04;;;;;;;47.63;28.87;;;7.70;99.90;;;;;;4934928;29;20243;-53
2023/04/09 03:21:33;;;;;;;46.57;28.83;;;7.80;99.90;;;;;;4933174;29;20684;-52
2023/04/09 03:24:02;;;;;;;48.10;28.27;;;7.70;99.90;;;;;;4933537;29;20233;-53
2023/04/09 03:26:35;;;;;;;48.33;29.70;;;7.70;99.90;;;;;;4933408;29;20228;-51
2023/04/09 03:29:05;;;;;;;47.20;28.23;;;7.70;99.90;;;;;;4933602;29;20216;-52
2023/04/09 03:31:33;;;;;;;47.43;28.50;;;7.70;99.90;;;;;;4922350;29;20732;-52
2023/04/09 03:34:02;;;;;;;47.90;27.87;;;7.80;99.90;;;;;;4952450;29;20224;-53
2023/04/09 03:36:32;;;;;;;46.93;28.17;;;7.80;99.90;;;;;;4933320;29;20243;-51
2023/04/09 03:39:05;;;;;;;45.77;27.50;;;7.80;99.90;;;;;;4919079;29;20691;-54
2023/04/09 03:41:41;;;;;;;41.47;24.50;;;7.80;99.90;;;;;;4917559;29;20235;-52
2023/04/09 03:44:13;;;;;;;44.60;26.43;;;8.00;99.90;;;;;;4917737;29;20244;-51
2023/04/09 03:47:04;;;;;;;44.07;26.37;;;8.20;99.90;;;;;;4928794;29;20279;-53
2023/04/09 03:49:35;;;;;;;34.10;22.17;;;8.00;99.90;;;;;;4936443;29;20268;-53
2023/04/09 03:52:14;;;;;;;46.97;27.17;;;8.30;99.90;;;;;;4936007;29;20708;-52
2023/04/09 03:54:48;;;;;;;38.67;23.80;;;8.20;99.90;;;;;;4936337;29;20236;-52
2023/04/09 03:57:21;;;;;;;47.13;27.03;;;8.40;99.90;;;;;;4936479;29;20232;-52
2023/04/09 03:59:52;;;;;;;40.53;23.57;;;8.30;99.90;;;;;;4929687;29;20715;-51
2023/04/09 04:02:22;;;;;;;42.40;27.20;;;8.40;99.90;;;;;;4946046;29;20261;-52
2023/04/09 04:04:59;;;;;;;38.27;24.63;;;8.30;99.90;;;;;;4927457;29;20721;-53
2023/04/09 04:07:32;;;;;;;40.60;23.90;;;8.20;99.90;;;;;;4931959;29;20570;-52
2023/04/09 04:10:10;;;;;;;43.27;27.60;;;8.40;99.90;;;;;;4952369;29;20252;-54
2023/04/09 04:12:42;;;;;;;39.50;24.80;;;8.30;99.90;;;;;;4936092;29;20233;-52
2023/04/09 04:15:23;;;;;;;46.73;28.03;;;8.10;99.90;;;;;;4937471;29;20250;-52
2023/04/09 04:17:55;;;;;;;40.77;25.37;;;8.00;99.90;;;;;;4952090;29;20643;-52
2023/04/09 04:20:35;;;;;;;41.03;25.80;;;8.10;99.90;;;;;;4949723;29;20254;-52
2023/04/09 04:23:08;;;;;;;47.10;28.63;;;8.20;99.90;;;;;;4917012;29;20240;-52
2023/04/09 04:25:43;;;;;;;41.43;26.60;;;8.10;99.90;;;;;;4916861;29;20289;-53
2023/04/09 04:28:15;;;;;;;38.30;25.23;;;8.00;99.90;;;;;;4921810;29;20245;-51
2023/04/09 04:30:43;;;;;;;45.47;28.10;;;8.00;99.90;;;;;;4925632;29;20239;-53
2023/04/09 04:33:11;;;;;;;39.27;24.07;;;8.10;99.90;;;;;;4943958;29;20291;-52
2023/04/09 04:35:51;;;;;;;40.47;26.60;;;8.10;99.90;;;;;;4922480;29;20293;-52
2023/04/09 04:38:34;;;;;;;51.47;28.70;;;8.50;99.90;;;;;;4920081;29;20233;-53
2023/04/09 04:41:08;;;;;;;43.03;26.90;;;8.20;99.90;;;;;;4920234;29;20269;-53
2023/04/09 04:43:41;;;;;;;44.23;27.03;;;8.10;99.90;;;;;;4929215;29;20251;-53
2023/04/09 04:46:16;;;;;;;42.77;27.53;;;8.10;99.90;;;;;;4924107;29;20282;-52
2023/04/09 04:48:44;;;;;;;41.30;25.20;;;8.10;99.90;;;;;;4920424;29;20707;-53
2023/04/09 04:51:12;;;;;;;42.23;26.40;;;8.10;99.90;;;;;;4916960;29;20283;-53
2023/04/09 04:53:46;;;;;;;41.13;26.93;;;8.10;99.90;;;;;;4918803;29;20228;-53
2023/04/09 04:56:16;;;;;;;40.37;25.30;;;7.90;99.90;;;;;;4926344;29;20609;-52
2023/04/09 04:58:55;;;;;;;41.80;25.33;;;7.90;99.90;;;;;;4932029;29;20232;-51
2023/04/09 05:01:24;;;;;;;41.00;25.17;;;7.80;99.90;;;;;;4929754;29;20272;-52
2023/04/09 05:03:53;;;;;;;40.53;26.07;;;7.90;99.90;;;;;;4932705;29;20776;-51
2023/04/09 05:06:30;;;;;;;41.73;25.27;;;7.80;99.90;;;;;;4925371;29;20235;-52
2023/04/09 05:09:00;;;;;;;42.47;26.73;;;7.80;99.90;;;;;;4932180;29;20622;-51
2023/04/09 05:11:37;;;;;;;39.77;24.27;;;7.80;99.90;;;;;;4916048;29;20233;-51
2023/04/09 05:14:09;;;;;;;45.13;27.17;;;7.70;99.90;;;;;;4925232;29;20233;-53
2023/04/09 05:16:37;;;;;;;40.33;25.33;;;7.70;99.90;;;;;;4924316;29;20723;-52
2023/04/09 05:19:07;;;;;;;39.77;25.03;;;7.70;99.90;;;;;;4921423;29;20234;-51
2023/04/09 05:21:35;;;;;;;41.20;26.03;;;7.80;99.90;;;;;;4917013;29;20240;-52
2023/04/09 05:24:03;;;;;;;33.07;21.93;;;7.80;99.90;;;;;;4917121;29;20225;-50
2023/04/09 05:26:33;;;;;;;41.53;26.07;;;7.90;99.90;;;;;;4915686;29;20256;-53
2023/04/09 05:29:03;;;;;;;33.43;22.30;;;8.00;99.90;;;;;;4923157;29;20261;-52
2023/04/09 05:31:32;;;;;;;40.27;25.07;;;8.10;99.90;;;;;;4931828;29;20247;-51
2023/04/09 05:34:07;;;;;;;41.00;24.53;;;8.00;99.90;;;;;;4923202;29;20229;-51
2023/04/09 05:36:41;;;;;;;38.43;24.33;;;7.90;99.90;;;;;;4923656;29;20231;-52
2023/04/09 05:39:10;;;;;;;39.90;23.87;;;7.90;99.90;;;;;;4950578;29;20228;-51
2023/04/09 05:41:39;;;;;;;34.33;23.20;;;7.90;99.90;;;;;;4929053;29;20221;-52
2023/04/09 05:44:34;;;;;;;38.33;23.33;;;7.80;99.90;;;;;;4941365;29;20284;-51
2023/04/09 05:47:08;;;;;;;38.63;25.13;;;8.00;99.90;;;;;;4925802;29;20236;-52
2023/04/09 05:49:49;;;;;;;37.13;23.00;;;7.90;99.90;;;;;;4925224;29;20232;-51
2023/04/09 05:52:18;;;;;;;40.03;24.17;;;8.00;99.90;;;;;;4938946;29;20304;-51
2023/04/09 05:54:46;;;;;;;37.27;24.37;;;8.00;99.90;;;;;;4923723;29;20342;-53
2023/04/09 05:57:19;;;;;;;37.30;22.60;;;8.00;99.90;;;;;;4926230;29;20275;-52
2023/04/09 05:59:56;;;;;;;37.17;22.70;;;8.00;99.90;;;;;;4925586;29;20232;-53
2023/04/09 06:02:25;;;;;;;39.60;24.50;;;8.10;99.90;;;;;;4925460;29;20251;-52
2023/04/09 06:04:54;;;;;;;36.10;23.67;;;8.00;99.90;;;;;;4926326;29;20248;-53
2023/04/09 06:07:22;;;;;;;39.73;24.20;;;8.00;99.90;;;;;;4924745;29;20641;-50
2023/04/09 06:09:50;;;;;;;37.60;22.73;;;8.00;99.90;;;;;;4926476;29;20247;-51
2023/04/09 06:12:18;;;;;;;40.13;25.23;;;8.00;99.90;;;;;;4924259;29;20334;-53
2023/04/09 06:14:49;;;;;;;36.50;24.10;;;8.00;99.90;;;;;;4923512;29;20565;-54
2023/04/09 06:17:18;;;;;;;36.87;23.63;;;8.00;99.90;;;;;;4955295;28;20225;-50
2023/04/09 06:19:46;;;;;;;40.97;24.73;;;8.10;99.90;;;;;;4923781;29;20229;-53
2023/04/09 06:22:14;;;;;;;40.57;24.43;;;8.10;99.90;;;;;;4927021;29;20581;-51
2023/04/09 06:24:42;;;;;;;42.97;25.90;;;8.30;99.90;;;;;;4925594;29;20230;-52
2023/04/09 06:27:10;;;;;;;39.93;24.67;;;8.10;99.90;;;;;;4924384;29;20225;-51
2023/04/09 06:29:39;;;;;;;37.73;24.03;;;8.10;99.90;;;;;;4925618;29;20316;-53
2023/04/09 06:32:07;;;;;;;38.43;24.53;;;8.10;99.90;;;;;;4925216;29;20252;-52
2023/04/09 06:34:38;;;;;;;37.10;23.53;;;8.10;99.90;;;;;;4924529;29;20320;-51
2023/04/09 06:37:06;;;;;;;36.13;23.07;;;8.20;99.90;;;;;;4925140;29;20250;-53
2023/04/09 06:39:34;;;;;;;35.13;23.00;;;8.40;99.90;;;;;;4920625;29;20237;-52
2023/04/09 06:42:02;;;;;;;38.90;24.93;;;8.40;99.90;;;;;;4927197;29;20243;-51
2023/04/09 06:44:39;;;;;;;35.90;22.40;;;8.50;99.90;;;;;;4917780;29;20238;-50
2023/04/09 06:47:08;;;;;;;39.70;24.27;;;8.50;99.90;;;;;;4916219;29;20240;-51
2023/04/09 06:49:37;;;;;;;41.00;24.90;;;8.50;99.90;;;;;;4916276;29;20268;-53
2023/04/09 06:52:06;;;;;;;34.53;23.00;;;8.50;99.90;;;;;;4926348;29;20588;-52
2023/04/09 06:54:34;;;;;;;39.13;24.03;;;8.50;99.90;;;;;;4916221;29;20237;-52
2023/04/09 06:57:02;;;;;;;35.23;22.40;;;8.40;99.90;;;;;;4921321;29;20232;-52
2023/04/09 06:59:30;;;;;;;36.10;23.27;;;8.50;99.90;;;;;;4934104;29;20232;-52
2023/04/09 07:01:59;;;;;;;35.17;23.07;;;8.60;99.90;;;;;;4932574;29;20238;-52
2023/04/09 07:04:27;;;;;;;33.30;21.87;;;8.60;99.90;;;;;;4930320;29;20263;-53
2023/04/09 07:06:58;;;;;;;33.43;21.53;;;8.60;99.90;;;;;;4930221;29;20230;-53
2023/04/09 07:09:27;;;;;;;32.23;21.20;;;8.70;99.90;;;;;;4934790;29;20316;-51
2023/04/09 07:11:55;;;;;;;33.83;21.70;;;8.80;99.90;;;;;;4930676;29;20324;-50
2023/04/09 07:14:23;;;;;;;31.17;20.67;;;8.80;99.90;;;;;;4938593;29;20236;-52
2023/04/09 07:16:51;;;;;;;30.53;20.57;;;8.90;99.90;;;;;;4938471;29;20581;-53
2023/04/09 07:19:19;;;;;;;32.97;21.30;;;8.90;99.90;;;;;;4938655;29;20463;-52
2023/04/09 07:21:47;;;;;;;31.13;20.80;;;8.90;99.90;;;;;;4937861;29;20229;-48
2023/04/09 07:24:17;;;;;;;28.13;19.20;;;9.00;99.90;;;;;;4938549;29;20284;-53
2023/04/09 07:26:45;;;;;;;31.50;20.57;;;9.00;99.90;;;;;;4938398;29;20241;-49
2023/04/09 07:29:13;;;;;;;33.70;21.67;;;9.00;99.90;;;;;;4938064;29;20243;-52
2023/04/09 07:31:43;;;;;;;36.20;23.60;;;9.10;99.90;;;;;;4937136;29;20252;-54
2023/04/09 07:34:11;;;;;;;35.77;22.17;;;9.10;99.90;;;;;;4932424;29;20312;-53
2023/04/09 07:36:40;;;;;;;35.57;23.17;;;9.00;99.90;;;;;;4927652;29;20712;-53
2023/04/09 07:39:08;;;;;;;36.27;23.07;;;9.10;99.90;;;;;;4926261;29;20228;-51
2023/04/09 07:41:37;;;;;;;35.93;23.37;;;9.20;99.90;;;;;;4928148;29;20233;-53
2023/04/09 07:44:06;;;;;;;39.27;24.33;;;9.20;99.90;;;;;;4927886;29;20248;-51
2023/04/09 07:46:35;;;;;;;38.90;23.93;;;9.30;99.90;;;;;;4926634;29;20237;-51
2023/04/09 07:49:04;;;;;;;36.40;23.53;;;9.30;99.90;;;;;;4928562;29;20559;-52
2023/04/09 07:51:33;;;;;;;38.93;24.30;;;9.30;99.90;;;;;;4931451;29;20709;-52
2023/04/09 07:54:01;;;;;;;36.50;23.30;;;9.40;99.90;;;;;;4933953;29;20230;-52
2023/04/09 07:56:30;;;;;;;37.53;22.83;;;9.40;99.90;;;;;;4932946;29;20243;-54
2023/04/09 07:58:59;;;;;;;34.20;22.20;;;9.40;99.90;;;;;;4937903;29;20720;-50
2023/04/09 08:01:27;;;;;;;36.07;23.33;;;9.50;99.90;;;;;;4936671;29;20241;-52
2023/04/09 08:03:55;;;;;;;30.33;20.37;;;9.70;99.90;;;;;;4928934;29;20268;-54
2023/04/09 08:06:25;;;;;;;34.27;20.93;;;9.90;99.90;;;;;;4929731;29;20238;-54
2023/04/09 08:08:53;;;;;;;39.67;20.87;;;9.80;99.90;;;;;;4937381;29;20297;-56
2023/04/09 08:11:24;;;;;;;30.20;21.33;;;9.80;99.90;;;;;;4937279;29;20232;-55
2023/04/09 08:13:52;;;;;;;32.53;22.03;;;9.90;99.90;;;;;;4936351;29;20238;-54
2023/04/09 08:16:23;;;;;;;32.03;21.37;;;10.00;99.90;;;;;;4931156;29;20259;-55
2023/04/09 08:18:51;;;;;;;35.67;22.57;;;10.10;99.90;;;;;;4927994;29;20333;-55
2023/04/09 08:21:20;;;;;;;35.60;22.87;;;10.20;99.90;;;;;;4937234;29;20599;-54
2023/04/09 08:23:48;;;;;;;33.33;20.83;;;10.30;99.90;;;;;;4936691;29;20559;-56
2023/04/09 08:26:16;;;;;;;32.87;21.50;;;10.30;99.90;;;;;;4937177;29;20617;-55
2023/04/09 08:28:44;;;;;;;34.73;22.17;;;10.30;99.90;;;;;;4937247;29;20254;-56
2023/04/09 08:31:12;;;;;;;37.57;23.07;;;10.30;99.90;;;;;;4919991;29;20244;-53
2023/04/09 08:33:41;;;;;;;38.17;23.90;;;10.40;99.90;;;;;;4926213;29;20717;-56
2023/04/09 08:36:10;;;;;;;36.57;23.60;;;10.40;99.90;;;;;;4922482;29;20691;-54
2023/04/09 08:38:39;;;;;;;37.27;23.17;;;10.50;99.90;;;;;;4933706;29;20324;-52
2023/04/09 08:41:07;;;;;;;37.70;22.67;;;10.40;99.90;;;;;;4936779;29;20244;-54
2023/04/09 08:43:36;;;;;;;36.13;23.60;;;10.50;99.90;;;;;;4936885;29;20225;-51
2023/04/09 08:46:24;;;;;;;30.47;21.03;;;10.60;99.90;;;;;;4936733;29;20236;-51
2023/04/09 08:48:54;;;;;;;28.80;19.90;;;10.60;99.90;;;;;;4936663;29;20231;-52
2023/04/09 08:51:24;;;;;;;28.27;19.00;;;10.60;99.90;;;;;;4936674;29;20227;-51
2023/04/09 08:53:56;;;;;;;29.80;20.13;;;10.90;99.90;;;;;;4936518;29;20235;-52
2023/04/09 08:56:24;;;;;;;26.57;18.97;;;11.10;99.90;;;;;;4936802;29;20245;-53
2023/04/09 08:58:53;;;;;;;28.67;20.03;;;11.20;99.90;;;;;;4936802;29;20234;-52
2023/04/09 09:01:23;;;;;;;29.67;20.27;;;11.40;99.90;;;;;;4933146;29;20232;-52
2023/04/09 09:03:58;;;;;;;28.73;19.97;;;11.40;99.90;;;;;;4925855;29;20250;-53
2023/04/09 09:06:30;;;;;;;27.27;19.50;;;11.20;99.90;;;;;;4926080;29;20321;-54
2023/04/09 09:09:07;;;;;;;27.23;18.17;;;11.30;99.90;;;;;;4925891;29;20235;-51
2023/04/09 09:11:36;;;;;;;24.97;17.33;;;11.50;99.90;;;;;;4917143;29;20242;-53
2023/04/09 09:14:05;;;;;;;23.73;16.97;;;11.60;99.90;;;;;;4917508;29;20246;-53
2023/04/09 09:16:35;;;;;;;25.40;17.60;;;11.90;99.90;;;;;;4934307;29;20745;-52
2023/04/09 09:19:04;;;;;;;25.00;17.80;;;12.10;99.90;;;;;;4928752;29;20279;-52
2023/04/09 09:21:33;;;;;;;24.03;17.67;;;12.00;99.90;;;;;;4917183;29;20291;-51
2023/04/09 09:24:01;;;;;;;24.03;17.87;;;12.20;99.90;;;;;;4917375;29;20244;-52
2023/04/09 09:26:31;;;;;;;24.90;18.10;;;12.60;99.90;;;;;;4916965;29;20589;-54
2023/04/09 09:29:04;;;;;;;24.50;17.67;;;12.70;99.90;;;;;;4918164;29;20238;-51
2023/04/09 09:31:46;;;;;;;24.73;17.63;;;12.80;99.90;;;;;;4918771;29;20316;-51
2023/04/09 09:34:16;;;;;;;21.27;16.67;;;12.70;99.90;;;;;;4924556;29;20239;-53
2023/04/09 09:36:45;;;;;;;20.63;16.27;;;13.00;99.90;;;;;;4924542;29;20235;-52
2023/04/09 09:39:16;;;;;;;22.73;16.80;;;13.20;99.90;;;;;;4922078;29;20236;-52
2023/04/09 09:41:45;;;;;;;21.23;16.90;;;13.60;99.90;;;;;;4921607;29;20322;-52
2023/04/09 09:44:31;;;;;;;20.50;16.47;;;14.00;99.90;;;;;;4927902;29;20231;-50
2023/04/09 09:46:59;;;;;;;21.23;16.80;;;13.80;99.90;;;;;;4927240;29;20258;-51
2023/04/09 09:49:28;;;;;;;20.27;16.50;;;13.50;99.90;;;;;;4917610;29;20236;-52
2023/04/09 09:51:59;;;;;;;20.43;15.37;;;13.50;99.90;;;;;;4917128;29;20232;-50
2023/04/09 09:54:31;;;;;;;18.80;15.07;;;13.80;99.90;;;;;;4915234;29;20604;-51
2023/04/09 09:57:04;;;;;;;16.93;15.10;;;14.20;99.90;;;;;;4917907;29;20808;-51
2023/04/09 09:59:37;;;;;;;19.73;15.03;;;14.50;99.90;;;;;;4927133;29;20706;-51
2023/04/09 10:02:09;;;;;;;19.27;15.03;;;14.70;99.90;;;;;;4925431;29;20236;-50
2023/04/09 10:04:40;;;;;;;18.83;15.97;;;14.60;99.90;;;;;;4926494;29;20240;-52
2023/04/09 10:07:08;;;;;;;19.47;15.70;;;14.80;99.90;;;;;;4927955;29;20318;-51
2023/04/09 10:09:40;;;;;;;19.73;15.30;;;15.20;99.90;;;;;;4927945;29;20216;-51
2023/04/09 10:12:10;;;;;;;20.57;16.10;;;15.20;99.90;;;;;;4928260;29;20243;-52
2023/04/09 10:14:39;;;;;;;18.37;15.13;;;15.00;99.90;;;;;;4921075;29;20596;-53
2023/04/09 10:17:08;;;;;;;18.67;15.53;;;15.10;99.90;;;;;;4925100;29;20695;-52
2023/04/09 10:19:42;;;;;;;17.97;14.93;;;14.90;99.90;;;;;;4926470;29;20232;-52
2023/04/09 10:22:11;;;;;;;21.13;15.00;;;15.10;99.90;;;;;;4932126;29;20246;-52
2023/04/09 10:24:40;;;;;;;19.17;14.60;;;15.10;99.90;;;;;;4935506;29;20701;-52
2023/04/09 10:27:13;;;;;;;19.63;15.67;;;15.30;99.90;;;;;;4935661;29;20596;-52
2023/04/09 10:29:45;;;;;;;19.53;14.90;;;15.60;99.90;;;;;;4933573;29;20266;-53
2023/04/09 10:32:19;;;;;;;16.93;14.23;;;15.80;99.90;;;;;;4930126;29;20240;-52
2023/04/09 10:34:50;;;;;;;17.07;14.80;;;16.00;99.90;;;;;;4925338;29;20266;-53
2023/04/09 10:37:22;;;;;;;17.63;14.83;;;16.50;99.90;;;;;;4927011;29;20239;-53
2023/04/09 10:39:51;;;;;;;20.67;16.47;;;16.70;99.90;;;;;;4929112;29;20687;-52
2023/04/09 10:42:23;;;;;;;17.03;15.03;;;16.70;99.90;;;;;;4929828;29;20692;-48
2023/04/09 10:45:06;;;;;;;17.80;14.60;;;16.90;99.90;;;;;;4930034;29;20228;-51
2023/04/09 10:47:36;;;;;;;17.87;15.60;;;17.40;99.90;;;;;;4929496;29;20604;-51
2023/04/09 10:50:20;;;;;;;19.47;15.43;;;16.90;99.90;;;;;;4938846;29;20594;-52
2023/04/09 10:52:52;;;;;;;18.13;15.30;;;16.70;99.90;;;;;;4920741;29;20233;-52
2023/04/09 10:55:32;;;;;;;19.47;15.33;;;16.80;99.90;;;;;;4921044;29;20239;-49
2023/04/09 10:58:00;;;;;;;18.10;15.77;;;16.80;99.90;;;;;;4920017;29;20311;-52
2023/04/09 11:00:28;;;;;;;17.80;15.10;;;16.90;99.90;;;;;;4931499;29;20240;-52
2023/04/09 11:03:13;;;;;;;17.73;15.03;;;17.20;99.90;;;;;;4928681;29;20731;-52
2023/04/09 11:05:43;;;;;;;19.70;16.10;;;17.30;99.90;;;;;;4934892;29;20236;-50
2023/04/09 11:08:13;;;;;;;20.43;15.13;;;17.30;99.90;;;;;;4931835;29;20234;-50
2023/04/09 11:10:43;;;;;;;20.47;16.97;;;17.40;99.90;;;;;;4935408;29;20320;-51
2023/04/09 11:13:13;;;;;;;19.80;15.60;;;17.50;99.90;;;;;;4919590;29;20264;-52
2023/04/09 11:15:42;;;;;;;20.30;16.13;;;17.20;99.90;;;;;;4919441;29;20328;-53
2023/04/09 11:18:13;;;;;;;19.10;15.97;;;17.40;99.90;;;;;;4919363;29;20289;-51
2023/04/09 11:20:43;;;;;;;16.70;14.90;;;17.40;99.90;;;;;;4919393;29;20237;-50
2023/04/09 11:23:14;;;;;;;17.97;14.80;;;17.50;99.90;;;;;;4927158;29;20290;-50
2023/04/09 11:25:42;;;;;;;16.87;14.80;;;17.40;99.90;;;;;;4926886;29;20231;-52
2023/04/09 11:28:10;;;;;;;17.57;14.70;;;17.10;99.90;;;;;;4933619;29;20229;-51
2023/04/09 11:30:38;;;;;;;17.03;14.77;;;16.70;99.90;;;;;;4937788;29;20704;-51
2023/04/09 11:33:07;;;;;;;17.53;15.60;;;16.50;99.90;;;;;;4930010;29;20225;-51
2023/04/09 11:35:36;;;;;;;20.67;18.10;;;16.40;99.90;;;;;;4930201;29;20599;-51
2023/04/09 11:38:10;;;;;;;18.97;16.27;;;16.10;99.90;;;;;;4932788;29;20235;-53
2023/04/09 11:40:46;;;;;;;18.53;15.20;;;16.00;99.90;;;;;;4937857;29;20228;-53
2023/04/09 11:43:15;;;;;;;19.80;16.27;;;15.90;99.90;;;;;;4937848;29;20232;-53
2023/04/09 11:45:46;;;;;;;19.13;16.33;;;16.00;99.90;;;;;;4937801;29;20236;-53
2023/04/09 11:48:14;;;;;;;20.90;16.57;;;16.20;99.90;;;;;;4938090;29;20589;-52
2023/04/09 11:50:43;;;;;;;18.57;15.83;;;16.50;99.90;;;;;;4938011;29;20323;-50
2023/04/09 11:53:19;;;;;;;24.47;19.73;;;17.00;99.90;;;;;;4937963;29;20232;-53
2023/04/09 11:55:50;;;;;;;24.83;20.00;;;16.50;99.90;;;;;;4929760;29;20707;-53
2023/04/09 11:58:18;;;;;;;25.30;19.53;;;16.40;99.90;;;;;;4933230;29;20320;-59
2023/04/09 12:00:46;;;;;;;24.63;19.90;;;16.40;99.90;;;;;;4936199;29;20245;-60
2023/04/09 12:03:15;;;;;;;24.00;20.10;;;16.60;99.90;;;;;;4925993;29;20236;-54
2023/04/09 12:05:47;;;;;;;25.10;19.43;;;16.80;99.90;;;;;;4916232;29;20261;-57
2023/04/09 12:08:24;;;;;;;22.43;18.33;;;16.80;99.90;;;;;;4914884;29;20769;-59
2023/04/09 12:10:52;;;;;;;23.90;18.70;;;17.00;99.90;;;;;;4913973;29;20302;-60
2023/04/09 12:13:21;;;;;;;25.63;19.43;;;17.00;99.90;;;;;;4912775;29;20844;-60
2023/04/09 12:15:50;;;;;;;22.33;18.90;;;16.90;99.90;;;;;;4914417;29;21032;-58
2023/04/09 12:18:21;;;;;;;23.17;18.47;;;16.80;99.90;;;;;;4914735;29;20792;-60
2023/04/09 12:20:49;;;;;;;26.87;20.03;;;16.70;99.90;;;;;;4914102;29;20711;-53
2023/04/09 12:23:19;;;;;;;24.47;20.33;;;16.50;99.90;;;;;;4915649;29;20253;-54
2023/04/09 12:25:47;;;;;;;22.40;18.17;;;16.40;99.90;;;;;;4914498;29;20232;-56
2023/04/09 12:28:16;;;;;;;27.00;21.07;;;16.50;99.90;;;;;;4914471;29;20792;-60
2023/04/09 12:30:47;;;;;;;22.93;18.63;;;16.40;99.90;;;;;;4913010;29;20359;-60
2023/04/09 12:33:16;;;;;;;19.73;16.37;;;16.50;99.90;;;;;;4915785;29;20702;-56
2023/04/09 12:35:44;;;;;;;21.57;16.67;;;16.50;99.90;;;;;;4916963;29;20230;-60
2023/04/09 12:38:12;;;;;;;19.33;16.33;;;16.30;99.90;;;;;;4917671;29;20268;-59
2023/04/09 12:40:42;;;;;;;19.87;16.43;;;16.30;99.90;;;;;;4915767;29;20317;-59
2023/04/09 12:43:10;;;;;;;20.00;15.50;;;16.00;99.90;;;;;;4917786;29;20230;-56
2023/04/09 12:45:38;;;;;;;18.50;14.63;;;15.90;99.90;;;;;;4920574;29;20639;-59
2023/04/09 12:48:06;;;;;;;19.37;15.90;;;15.90;99.90;;;;;;4921568;29;20239;-57
2023/04/09 12:50:36;;;;;;;17.87;15.00;;;15.80;99.90;;;;;;4919031;29;20239;-53